createdAt,value
2022-09-14T00:03:19.917Z,100699.66
2022-09-14T00:08:23.156Z,100681.28
2022-09-14T00:13:25.014Z,100635.38
2022-09-14T00:18:29.012Z,100621.81
2022-09-14T00:23:30.918Z,100596.69
2022-09-14T00:28:44.096Z,100575.53
2022-09-14T00:33:48.177Z,100596.69
2022-09-14T00:38:50.705Z,100582.72
2022-09-14T00:44:02.547Z,100594.28
2022-09-14T00:49:10.437Z,100604.63
2022-09-14T00:54:14.058Z,100578.66
2022-09-14T00:59:24.169Z,100524.72
2022-09-14T01:05:14.938Z,100512.75
2022-09-14T01:10:47.468Z,100579.72
2022-09-14T01:16:20.668Z,100664.56
2022-09-14T01:21:43.474Z,100709.50
2022-09-14T01:27:44.817Z,100722.94
2022-09-14T01:32:52.464Z,100758.41
2022-09-14T01:38:02.251Z,100736.97
2022-09-14T01:43:18.322Z,100820.66
2022-09-14T01:48:30.205Z,100784.69
2022-09-14T01:53:38.738Z,100812.16
2022-09-14T01:59:11.507Z,100836.66
2022-09-14T02:04:23.513Z,100900.75
2022-09-14T02:09:27.461Z,100898.09
2022-09-14T02:14:30.817Z,100808.19
2022-09-14T02:19:41.709Z,100749.84
2022-09-14T02:24:43.965Z,100762.13
2022-09-14T02:29:49.620Z,100746.50
2022-09-14T02:35:23.724Z,100790.13
2022-09-14T02:40:37.938Z,100788.22
2022-09-14T02:45:52.278Z,100826.25
2022-09-14T02:51:34.256Z,100803.06
2022-09-14T02:56:37.773Z,100771.66
2022-09-14T03:01:42.449Z,100704.47
2022-09-14T03:06:49.561Z,100683.81
2022-09-14T03:11:56.710Z,100630.00
2022-09-14T03:17:04.927Z,100599.41
2022-09-14T03:22:09.835Z,100601.75
2022-09-14T03:27:16.860Z,100614.03
2022-09-14T03:32:21.359Z,100603.63
2022-09-14T03:37:38.125Z,100596.34
2022-09-14T03:42:52.589Z,100585.50
2022-09-14T03:47:57.488Z,100608.47
2022-09-14T03:53:07.807Z,100633.84
2022-09-14T03:58:16.372Z,100597.59
2022-09-14T04:03:21.295Z,100640.09
2022-09-14T04:08:28.887Z,100619.03
2022-09-14T04:13:36.464Z,100648.00
2022-09-14T04:18:44.852Z,100638.84
2022-09-14T04:24:10.503Z,100660.63
2022-09-14T04:29:12.863Z,100565.13
2022-09-14T04:34:18.881Z,100619.19
2022-09-14T04:39:27.265Z,100592.28
2022-09-14T04:44:35.911Z,100589.16
2022-09-14T04:49:49.802Z,100575.81
2022-09-14T04:54:54.078Z,100542.53
2022-09-14T05:05:15.568Z,100631.69
2022-09-14T05:10:22.234Z,100631.88
2022-09-14T05:15:31.952Z,100599.31
2022-09-14T05:20:35.784Z,100651.81
2022-09-14T05:25:40.881Z,100665.53
2022-09-14T05:30:44.245Z,100656.47
2022-09-14T05:35:51.392Z,100649.00
2022-09-14T05:41:00.105Z,100657.81
2022-09-14T05:46:06.093Z,100673.78
2022-09-14T05:51:19.548Z,100719.91
2022-09-14T05:56:26.107Z,100676.13
2022-09-14T06:01:36.832Z,100686.34
2022-09-14T06:06:39.100Z,100636.28
2022-09-14T06:11:44.919Z,100612.13
2022-09-14T06:16:50.095Z,100649.19
2022-09-14T06:21:53.600Z,100663.09
2022-09-14T06:27:05.277Z,100672.88
2022-09-14T06:32:11.853Z,100740.81
2022-09-14T06:37:16.080Z,100740.56
2022-09-14T06:42:21.239Z,100749.09
2022-09-14T06:47:35.377Z,100755.38
2022-09-14T06:52:51.026Z,100756.78
2022-09-14T06:58:00.711Z,100787.31
2022-09-14T07:03:08.239Z,100790.78
2022-09-14T07:08:15.530Z,100761.81
2022-09-14T07:13:27.289Z,100726.72
2022-09-14T07:24:28.933Z,100744.69
2022-09-14T07:35:07.550Z,100664.47
2022-09-14T07:40:19.888Z,100741.66
2022-09-14T07:45:25.324Z,100729.00
2022-09-14T07:50:30.528Z,100708.44
2022-09-14T07:55:37.675Z,100692.66
2022-09-14T08:00:50.573Z,100696.78
2022-09-14T08:06:10.487Z,100671.38
2022-09-14T08:11:28.902Z,100645.97
2022-09-14T08:16:37.936Z,100664.28
2022-09-14T08:21:53.106Z,100708.09
2022-09-14T08:27:00.349Z,100735.22
2022-09-14T08:32:06.775Z,100709.00
2022-09-14T08:37:13.348Z,100689.97
2022-09-14T08:42:23.139Z,100698.75
2022-09-14T08:47:53.947Z,100688.53
2022-09-14T08:52:59.417Z,100684.56
2022-09-14T08:58:52.486Z,100713.31
2022-09-14T09:04:38.047Z,100727.78
2022-09-14T09:10:01.331Z,100648.28
2022-09-14T09:15:28.929Z,100656.66
2022-09-14T09:20:42.589Z,100715.31
2022-09-14T09:26:29.115Z,100730.56
2022-09-14T09:31:43.991Z,100661.03
2022-09-14T09:37:17.470Z,100721.59
2022-09-14T09:42:28.644Z,100717.72
2022-09-14T09:47:42.704Z,100762.56
2022-09-14T09:53:04.622Z,100775.50
2022-09-14T09:58:46.873Z,100734.50
2022-09-14T10:04:24.131Z,100745.72
2022-09-14T10:09:30.393Z,100739.88
2022-09-14T10:14:50.006Z,100704.59
2022-09-14T10:19:58.958Z,100741.91
2022-09-14T10:25:25.422Z,100751.97
2022-09-14T10:30:58.717Z,100737.75
2022-09-14T10:36:33.567Z,100668.97
2022-09-14T10:42:11.486Z,100646.81
2022-09-14T10:47:32.338Z,100715.47
2022-09-14T10:53:15.409Z,100759.63
2022-09-14T10:59:12.013Z,100697.31
2022-09-14T11:04:31.318Z,100780.09
2022-09-14T11:09:51.180Z,100696.81
2022-09-14T11:15:32.591Z,100763.34
2022-09-14T11:21:00.171Z,100736.34
2022-09-14T11:26:38.074Z,100719.06
2022-09-14T11:32:37.589Z,100745.19
2022-09-14T11:38:07.346Z,100729.41
2022-09-14T11:43:18.355Z,100720.28
2022-09-14T11:49:04.311Z,100720.38
2022-09-14T11:54:26.627Z,100745.84
2022-09-14T11:59:57.777Z,100755.47
2022-09-14T12:05:14.992Z,100771.56
2022-09-14T12:10:23.182Z,100762.09
2022-09-14T12:15:33.066Z,100772.94
2022-09-14T12:20:48.649Z,100763.91
2022-09-14T12:26:12.802Z,100762.81
2022-09-14T12:37:35.544Z,100795.06
2022-09-14T12:42:48.018Z,100767.94
2022-09-14T12:47:56.194Z,100777.94
2022-09-14T12:53:13.798Z,100791.97
2022-09-14T12:58:50.111Z,100798.78
2022-09-14T13:04:00.199Z,100823.19
2022-09-14T13:09:09.878Z,100818.47
2022-09-14T13:14:31.399Z,100794.53
2022-09-14T13:19:37.852Z,100796.94
2022-09-14T13:24:47.925Z,100775.41
2022-09-14T13:30:26.700Z,100793.84
2022-09-14T13:35:57.887Z,100813.03
2022-09-14T13:41:39.133Z,100814.63
2022-09-14T13:46:54.562Z,100826.47
2022-09-14T13:52:21.524Z,100803.63
2022-09-14T13:57:28.232Z,100802.47
2022-09-14T14:02:35.614Z,100782.53
2022-09-14T14:07:44.561Z,100751.91
2022-09-14T14:12:50.775Z,100750.72
2022-09-14T14:18:15.519Z,100756.81
2022-09-14T14:23:23.224Z,100750.84
2022-09-14T14:28:32.867Z,100737.31
2022-09-14T14:33:49.867Z,100721.44
2022-09-14T14:39:01.743Z,100691.94
2022-09-14T14:44:14.036Z,100703.59
2022-09-14T14:49:19.974Z,100719.97
2022-09-14T14:59:55.336Z,100713.69
2022-09-14T15:05:06.951Z,100731.25
2022-09-14T15:10:20.168Z,100723.41
2022-09-14T15:15:26.714Z,100718.63
2022-09-14T15:20:32.188Z,100742.25
2022-09-14T15:25:39.117Z,100739.59
2022-09-14T15:30:48.257Z,100756.47
2022-09-14T15:36:01.569Z,100751.78
2022-09-14T15:41:08.533Z,100749.06
2022-09-14T15:46:16.430Z,100731.97
2022-09-14T15:51:21.319Z,100742.28
2022-09-14T15:56:33.075Z,100738.69
2022-09-14T16:02:01.601Z,100723.47
2022-09-14T16:07:15.514Z,100731.84
2022-09-14T16:12:25.378Z,100725.84
2022-09-14T16:17:35.098Z,100732.97
2022-09-14T16:22:42.030Z,100722.28
2022-09-14T16:27:51.247Z,100720.88
2022-09-14T16:33:30.459Z,100713.69
2022-09-14T16:38:42.911Z,100711.31
2022-09-14T16:56:08.444Z,100723.13
2022-09-14T17:01:21.043Z,100717.13
2022-09-14T17:06:33.398Z,100712.34
2022-09-14T17:11:43.604Z,100701.06
2022-09-14T17:16:54.018Z,100702.94
2022-09-14T17:22:01.550Z,100699.22
2022-09-14T17:27:07.577Z,100697.94
2022-09-14T17:32:15.006Z,100696.25
2022-09-14T17:37:29.634Z,100717.38
2022-09-14T17:42:59.974Z,100723.34
2022-09-14T17:48:19.770Z,100724.81
2022-09-14T17:53:27.541Z,100739.50
2022-09-14T17:58:34.199Z,100737.81
2022-09-14T18:03:40.656Z,100739.31
2022-09-14T18:08:58.802Z,100740.78
2022-09-14T18:14:04.204Z,100726.69
2022-09-14T18:19:12.502Z,100744.19
2022-09-14T18:24:19.437Z,100744.13
2022-09-14T18:29:23.263Z,100742.53
2022-09-14T18:39:47.677Z,100738.13
2022-09-14T18:44:58.368Z,100742.53
2022-09-14T18:50:03.733Z,100755.31
2022-09-14T18:55:20.333Z,100757.34
2022-09-14T19:00:27.235Z,100762.56
2022-09-14T19:05:33.213Z,100761.75
2022-09-14T19:10:47.483Z,100771.75
2022-09-14T19:15:59.396Z,100777.69
2022-09-14T19:21:15.811Z,100794.00
2022-09-14T19:26:22.362Z,100802.31
2022-09-14T19:31:27.630Z,100809.81
2022-09-14T19:36:43.117Z,100814.16
2022-09-14T19:41:55.930Z,100819.31
2022-09-14T19:47:20.246Z,100819.66
2022-09-14T19:52:46.659Z,100825.97
2022-09-14T19:57:50.250Z,100822.75
2022-09-14T20:02:55.220Z,100821.13
2022-09-14T20:08:00.325Z,100832.31
2022-09-14T20:13:05.441Z,100835.84
2022-09-14T20:18:11.455Z,100846.91
2022-09-14T20:23:17.653Z,100850.41
2022-09-14T20:28:26.672Z,100858.25
2022-09-14T20:33:30.435Z,100860.63
2022-09-14T20:43:53.034Z,100863.69
2022-09-14T20:49:13.248Z,100865.22
2022-09-14T20:54:21.239Z,100852.81
2022-09-14T20:59:29.083Z,100855.16
2022-09-14T21:04:34.356Z,100856.34
2022-09-14T21:09:39.577Z,100860.66
2022-09-14T21:14:45.926Z,100867.41
2022-09-14T21:19:50.679Z,100871.38
2022-09-14T21:24:56.315Z,100873.34
2022-09-14T21:30:03.220Z,100876.50
2022-09-14T21:35:07.299Z,100882.47
2022-09-14T21:40:14.501Z,100880.84
2022-09-14T21:45:24.877Z,100885.94
2022-09-14T21:50:35.937Z,100883.88
2022-09-14T21:55:43.710Z,100887.75
2022-09-14T22:00:45.813Z,100894.44
2022-09-14T22:06:03.436Z,100897.94
2022-09-14T22:11:19.091Z,100895.88
2022-09-14T22:16:31.289Z,100893.81
2022-09-14T22:21:44.820Z,100888.94
2022-09-14T22:26:50.520Z,100884.91
2022-09-14T22:31:53.750Z,100884.00
2022-09-14T22:37:00.320Z,100875.91
2022-09-14T22:42:05.102Z,100891.63
2022-09-14T22:47:11.469Z,100885.53
2022-09-14T22:52:16.741Z,100888.94
2022-09-14T22:57:28.792Z,100884.09
2022-09-14T23:02:42.327Z,100884.00
2022-09-14T23:07:48.574Z,100879.94
2022-09-14T23:13:01.104Z,100877.06
2022-09-14T23:18:03.991Z,100875.81
2022-09-14T23:23:13.594Z,100869.34
2022-09-14T23:28:19.888Z,100863.69
2022-09-14T23:33:27.767Z,100852.44
2022-09-14T23:38:56.913Z,100853.59
2022-09-14T23:44:06.294Z,100853.59
2022-09-14T23:49:12.973Z,100853.59
2022-09-14T23:54:17.997Z,100850.34
2022-09-14T23:59:27.552Z,100849.09
